Shimpstown, Pennsylvania
Current Conditions -  °F | °C
As of 6:07 PM on Thursday 18 Dec 2014 (Local Time) from KHGR Reporting Station
Overcast Overcast  
Wind Chill: 26°   Ceiling: 2900
Heat Index: 33°   Visibility: 10mi
Dew Point: 22°   Wind: 8mph
Humidity: 64%   Direction: 280°W
Pressure: 30.09"   Gusts: NA
Location:  39.8035°N, 77.9346°W
Report Text: KHGR 182307Z 28007KT 10SM OVC029 01/M06 A3009 RMK AO2 T00061056
Loading
Personal Weather Stations






























Interactive Weather Map New forecast layout! Learn more

10-Day Weather Forecast

Advertisements
Track Severe Weather on mobile